createdAt,value
2023-05-15T00:01:06.388Z,10.90
2023-05-15T00:03:34.389Z,10.80
2023-05-15T00:06:02.194Z,10.60
2023-05-15T00:08:29.911Z,10.50
2023-05-15T00:11:01.612Z,10.30
2023-05-15T00:13:29.959Z,10.20
2023-05-15T00:15:57.912Z,10.10
2023-05-15T00:18:27.443Z,10.00
2023-05-15T00:20:55.315Z,10.00
2023-05-15T00:23:23.031Z,10.10
2023-05-15T00:25:50.777Z,10.20
2023-05-15T00:28:18.470Z,10.00
2023-05-15T00:30:46.157Z,10.00
2023-05-15T00:33:14.069Z,10.00
2023-05-15T00:35:43.149Z,10.10
2023-05-15T00:38:10.893Z,10.10
2023-05-15T00:40:39.582Z,10.10
2023-05-15T00:43:07.575Z,10.20
2023-05-15T00:45:36.002Z,9.80
2023-05-15T00:48:04.562Z,9.70
2023-05-15T00:50:34.318Z,9.50
2023-05-15T00:53:04.642Z,9.50
2023-05-15T00:55:33.253Z,9.50
2023-05-15T00:58:02.477Z,9.30
2023-05-15T01:00:32.593Z,9.30
2023-05-15T01:03:01.853Z,9.10
2023-05-15T01:05:30.078Z,9.00
2023-05-15T01:08:07.732Z,8.90
2023-05-15T01:10:36.194Z,8.70
2023-05-15T01:13:05.224Z,8.80
2023-05-15T01:15:33.621Z,8.90
2023-05-15T01:18:01.529Z,8.90
2023-05-15T01:20:29.525Z,8.80
2023-05-15T01:23:11.834Z,8.70
2023-05-15T01:26:05.870Z,8.60
2023-05-15T01:28:40.725Z,8.60
2023-05-15T01:31:15.517Z,8.60
2023-05-15T01:33:46.739Z,8.60
2023-05-15T01:36:20.183Z,8.40
2023-05-15T01:38:53.719Z,8.30
2023-05-15T01:41:27.662Z,8.30
2023-05-15T01:44:04.065Z,8.30
2023-05-15T01:46:35.892Z,8.20
2023-05-15T01:49:04.730Z,8.20
2023-05-15T01:51:34.165Z,8.30
2023-05-15T01:54:03.127Z,8.30
2023-05-15T01:56:31.871Z,8.40
2023-05-15T01:59:07.405Z,8.30
2023-05-15T02:01:36.665Z,8.30
2023-05-15T02:04:05.553Z,8.30
2023-05-15T02:06:34.655Z,8.30
2023-05-15T02:09:04.202Z,8.20
2023-05-15T02:11:31.903Z,8.30
2023-05-15T02:14:01.441Z,8.10
2023-05-15T02:16:30.571Z,8.00
2023-05-15T02:18:58.340Z,8.00
2023-05-15T02:21:26.101Z,8.00
2023-05-15T02:23:53.827Z,7.90
2023-05-15T02:26:37.292Z,7.80
2023-05-15T02:29:19.354Z,7.70
2023-05-15T02:31:58.013Z,7.80
2023-05-15T02:34:33.250Z,7.80
2023-05-15T02:37:03.011Z,7.60
2023-05-15T02:39:30.952Z,7.50
2023-05-15T02:42:00.503Z,7.50
2023-05-15T02:44:28.914Z,7.50
2023-05-15T02:46:58.321Z,7.40
2023-05-15T02:49:26.323Z,7.40
2023-05-15T02:51:54.193Z,7.40
2023-05-15T02:54:22.033Z,7.40
2023-05-15T02:56:49.732Z,7.40
2023-05-15T02:59:19.866Z,7.40
2023-05-15T03:01:47.768Z,7.50
2023-05-15T03:04:16.941Z,7.60
2023-05-15T03:06:44.628Z,7.60
2023-05-15T03:09:12.314Z,7.40
2023-05-15T03:11:40.003Z,7.40
2023-05-15T03:14:07.693Z,7.30
2023-05-15T03:16:36.934Z,7.30
2023-05-15T03:19:04.748Z,7.30
2023-05-15T03:21:34.940Z,7.30
2023-05-15T03:24:02.783Z,7.30
2023-05-15T03:26:30.478Z,7.30
2023-05-15T03:28:59.312Z,7.20
2023-05-15T03:31:27.038Z,7.20
2023-05-15T03:33:54.756Z,7.10
2023-05-15T03:36:22.559Z,7.00
2023-05-15T03:38:51.587Z,6.90
2023-05-15T03:41:19.288Z,6.80
2023-05-15T03:43:47.009Z,6.80
2023-05-15T03:46:15.441Z,6.80
2023-05-15T03:48:43.506Z,6.90
2023-05-15T03:51:11.496Z,6.90
2023-05-15T03:53:39.301Z,7.00
2023-05-15T03:56:08.481Z,7.00
2023-05-15T03:58:36.156Z,6.90
2023-05-15T04:01:04.123Z,7.00
2023-05-15T04:03:31.881Z,7.00
2023-05-15T04:05:59.591Z,7.00
2023-05-15T04:08:27.368Z,7.00
2023-05-15T04:10:55.117Z,7.10
2023-05-15T04:13:24.150Z,7.00
2023-05-15T04:15:51.983Z,7.00
2023-05-15T04:18:19.685Z,7.00
2023-05-15T04:20:47.354Z,7.10
2023-05-15T04:23:15.091Z,7.20
2023-05-15T04:25:46.516Z,7.30
2023-05-15T04:28:14.360Z,7.40
2023-05-15T04:30:43.378Z,7.40
2023-05-15T04:33:12.033Z,7.40
2023-05-15T04:35:40.156Z,7.50
2023-05-15T04:38:07.859Z,7.90
2023-05-15T04:40:35.586Z,7.90
2023-05-15T04:43:04.215Z,8.10
2023-05-15T04:45:31.971Z,8.30
2023-05-15T04:48:01.075Z,8.60
2023-05-15T04:50:28.864Z,8.90
2023-05-15T04:52:56.671Z,9.10
2023-05-15T04:55:24.534Z,9.30
2023-05-15T04:57:52.481Z,9.50
2023-05-15T05:00:20.671Z,9.60
2023-05-15T05:02:48.693Z,9.70
2023-05-15T05:05:18.070Z,9.70
2023-05-15T05:07:46.334Z,9.80
2023-05-15T05:10:14.760Z,9.80
2023-05-15T05:12:42.493Z,9.90
2023-05-15T05:15:11.465Z,10.00
2023-05-15T05:17:39.209Z,10.10
2023-05-15T05:20:13.060Z,10.20
2023-05-15T05:22:42.625Z,10.30
2023-05-15T05:25:10.749Z,10.30
2023-05-15T05:27:38.456Z,10.30
2023-05-15T05:30:07.429Z,10.30
2023-05-15T05:32:35.264Z,10.30
2023-05-15T05:35:04.111Z,10.40
2023-05-15T05:37:31.837Z,10.40
2023-05-15T05:40:00.879Z,10.50
2023-05-15T05:42:28.698Z,10.40
2023-05-15T05:44:56.588Z,10.40
2023-05-15T05:47:26.342Z,10.50
2023-05-15T05:49:55.140Z,10.50
2023-05-15T05:52:23.035Z,10.60
2023-05-15T05:54:50.764Z,10.70
2023-05-15T05:57:19.871Z,10.80
2023-05-15T05:59:47.554Z,11.20
2023-05-15T06:02:15.334Z,11.40
2023-05-15T06:04:43.155Z,11.60
2023-05-15T06:07:10.979Z,11.80
2023-05-15T06:09:38.775Z,12.20
2023-05-15T06:12:08.385Z,12.50
2023-05-15T06:14:37.528Z,12.90
2023-05-15T06:17:05.863Z,13.30
2023-05-15T06:19:33.690Z,13.60
2023-05-15T06:22:01.359Z,13.80
2023-05-15T06:24:29.200Z,13.90
2023-05-15T06:26:57.330Z,13.90
2023-05-15T06:29:25.597Z,13.90
2023-05-15T06:31:54.700Z,13.90
2023-05-15T06:34:22.451Z,13.90
2023-05-15T06:36:50.353Z,14.00
2023-05-15T06:39:18.127Z,14.20
2023-05-15T06:41:45.869Z,14.30
2023-05-15T06:44:13.651Z,14.50
2023-05-15T06:46:41.522Z,14.30
2023-05-15T06:49:10.668Z,14.20
2023-05-15T06:51:38.428Z,14.30
2023-05-15T06:54:06.493Z,14.40
2023-05-15T06:56:34.250Z,14.50
2023-05-15T06:59:01.985Z,14.90
2023-05-15T07:01:30.113Z,15.00
2023-05-15T07:03:57.885Z,15.20
2023-05-15T07:06:26.978Z,15.40
2023-05-15T07:08:54.795Z,15.30
2023-05-15T07:11:22.810Z,15.50
2023-05-15T07:13:52.565Z,15.60
2023-05-15T07:16:20.530Z,15.90
2023-05-15T07:18:48.329Z,16.30
2023-05-15T07:21:16.191Z,16.50
2023-05-15T07:23:45.254Z,16.90
2023-05-15T07:26:20.080Z,17.20
2023-05-15T07:28:55.624Z,17.40
2023-05-15T07:31:23.409Z,17.50
2023-05-15T07:33:51.152Z,17.50
2023-05-15T07:36:18.966Z,17.60
2023-05-15T07:38:47.982Z,17.70
2023-05-15T07:41:15.674Z,17.50
2023-05-15T07:43:43.346Z,17.80
2023-05-15T07:46:11.444Z,17.90
2023-05-15T07:48:39.161Z,18.20
2023-05-15T07:51:07.308Z,18.50
2023-05-15T07:53:35.054Z,19.00
2023-05-15T07:56:04.478Z,19.30
2023-05-15T07:58:34.004Z,19.40
2023-05-15T08:01:01.769Z,19.60
2023-05-15T08:03:29.600Z,19.60
2023-05-15T08:05:57.326Z,19.50
2023-05-15T08:08:25.005Z,19.20
2023-05-15T08:10:52.734Z,19.40
2023-05-15T08:13:21.799Z,19.30
2023-05-15T08:15:49.588Z,19.20
2023-05-15T08:18:17.372Z,19.00
2023-05-15T08:20:45.145Z,18.90
2023-05-15T08:23:15.908Z,19.00
2023-05-15T08:25:43.648Z,19.20
2023-05-15T08:28:11.652Z,19.40
2023-05-15T08:30:40.780Z,19.40
2023-05-15T08:33:08.521Z,19.70
2023-05-15T08:35:36.268Z,19.80
2023-05-15T08:38:04.272Z,19.60
2023-05-15T08:40:38.923Z,19.30
2023-05-15T08:43:14.910Z,19.30
2023-05-15T08:45:44.371Z,19.00
2023-05-15T08:48:15.359Z,19.00
2023-05-15T08:50:44.537Z,19.00
2023-05-15T08:53:13.603Z,18.90
2023-05-15T08:55:42.580Z,18.90
2023-05-15T08:58:10.697Z,19.00
2023-05-15T09:00:38.684Z,19.20
2023-05-15T09:03:08.078Z,19.10
2023-05-15T09:05:37.376Z,19.10
2023-05-15T09:08:09.154Z,19.00
2023-05-15T09:10:37.116Z,19.00
2023-05-15T09:13:07.521Z,18.90
2023-05-15T09:15:37.198Z,18.80
2023-05-15T09:18:07.851Z,18.90
2023-05-15T09:20:37.464Z,18.90
2023-05-15T09:23:22.503Z,18.80
2023-05-15T09:25:53.828Z,18.70
2023-05-15T09:28:29.770Z,18.70
2023-05-15T09:31:02.100Z,18.50
2023-05-15T09:33:33.481Z,18.50
2023-05-15T09:36:01.841Z,18.40
2023-05-15T09:38:30.882Z,18.40
2023-05-15T09:41:03.585Z,18.50
2023-05-15T09:43:35.122Z,18.40
2023-05-15T09:46:03.219Z,18.40
2023-05-15T09:48:32.775Z,18.20
2023-05-15T09:51:01.490Z,18.20
2023-05-15T09:53:30.507Z,18.00
2023-05-15T09:55:58.317Z,18.10
2023-05-15T09:58:26.012Z,17.90
2023-05-15T10:00:53.772Z,17.90
2023-05-15T10:03:22.469Z,17.80
2023-05-15T10:05:51.588Z,17.80
2023-05-15T10:08:28.176Z,17.70
2023-05-15T10:10:59.962Z,17.80
2023-05-15T10:13:28.894Z,17.60
2023-05-15T10:16:02.146Z,17.60
2023-05-15T10:18:34.049Z,17.60
2023-05-15T10:21:04.699Z,17.40
2023-05-15T10:23:35.860Z,17.40
2023-05-15T10:26:07.610Z,17.60
2023-05-15T10:28:37.128Z,17.80
2023-05-15T10:31:06.750Z,18.00
2023-05-15T10:33:36.846Z,18.30
2023-05-15T10:36:08.121Z,18.70
2023-05-15T10:38:37.193Z,19.00
2023-05-15T10:41:16.622Z,19.20
2023-05-15T10:43:46.694Z,19.60
2023-05-15T10:46:15.878Z,20.00
2023-05-15T10:48:44.379Z,19.90
2023-05-15T10:51:20.627Z,20.10
2023-05-15T10:53:48.639Z,20.30
2023-05-15T10:56:17.647Z,20.30
2023-05-15T10:58:48.279Z,20.60
2023-05-15T11:01:26.670Z,20.80
2023-05-15T11:04:13.210Z,20.90
2023-05-15T11:06:44.011Z,21.10
2023-05-15T11:09:34.912Z,21.00
2023-05-15T11:12:03.980Z,21.00
2023-05-15T11:14:32.787Z,21.20
2023-05-15T11:17:03.948Z,21.40
2023-05-15T11:19:37.534Z,21.70
2023-05-15T11:22:20.420Z,22.00
2023-05-15T11:24:52.074Z,22.30
2023-05-15T11:27:21.467Z,22.10
2023-05-15T11:30:05.936Z,22.30
2023-05-15T11:32:41.052Z,22.40
2023-05-15T11:35:11.592Z,22.30
2023-05-15T11:37:43.814Z,23.10
2023-05-15T11:40:15.342Z,23.60
2023-05-15T11:42:43.291Z,24.30
2023-05-15T11:45:12.122Z,23.90
2023-05-15T11:47:41.577Z,23.90
2023-05-15T11:50:12.671Z,23.80
2023-05-15T11:52:41.843Z,23.50
2023-05-15T11:55:09.932Z,23.50
2023-05-15T11:57:39.144Z,23.10
2023-05-15T12:00:09.987Z,22.70
2023-05-15T12:02:37.826Z,22.20
2023-05-15T12:05:08.268Z,21.60
2023-05-15T12:07:38.338Z,21.50
2023-05-15T12:10:08.403Z,21.40
2023-05-15T12:12:36.704Z,21.40
2023-05-15T12:15:05.996Z,21.40
2023-05-15T12:17:33.984Z,21.50
2023-05-15T12:20:02.194Z,21.50
2023-05-15T12:22:29.893Z,21.50
2023-05-15T12:24:59.804Z,21.70
2023-05-15T12:27:29.099Z,21.90
2023-05-15T12:29:56.921Z,22.10
2023-05-15T12:32:24.892Z,22.10
2023-05-15T12:34:52.782Z,22.20
2023-05-15T12:37:21.796Z,22.30
2023-05-15T12:39:54.620Z,22.60
2023-05-15T12:42:22.560Z,22.90
2023-05-15T12:44:53.328Z,23.10
2023-05-15T12:47:25.106Z,23.30
2023-05-15T12:49:57.204Z,23.60
2023-05-15T12:52:28.978Z,23.70
2023-05-15T12:54:57.187Z,24.00
2023-05-15T12:57:25.284Z,24.10
2023-05-15T12:59:54.376Z,24.10
2023-05-15T13:02:23.346Z,23.70
2023-05-15T13:04:51.881Z,23.70
2023-05-15T13:07:19.645Z,23.50
2023-05-15T13:10:02.574Z,23.50
2023-05-15T13:12:36.659Z,23.20
2023-05-15T13:15:07.033Z,23.00
2023-05-15T13:17:35.950Z,22.90
2023-05-15T13:20:05.597Z,22.60
2023-05-15T13:22:33.287Z,22.60
2023-05-15T13:25:00.975Z,22.60
2023-05-15T13:27:28.663Z,22.70
2023-05-15T13:29:56.435Z,23.00
2023-05-15T13:32:25.546Z,22.90
2023-05-15T13:34:54.903Z,22.90
2023-05-15T13:37:22.856Z,22.90
2023-05-15T13:39:50.536Z,23.10
2023-05-15T13:42:18.229Z,23.10
2023-05-15T13:44:46.078Z,23.30
2023-05-15T13:47:13.823Z,22.90
2023-05-15T13:49:42.861Z,22.70
2023-05-15T13:52:10.933Z,22.70
2023-05-15T13:54:38.608Z,22.90
2023-05-15T13:57:06.661Z,23.20
2023-05-15T13:59:34.342Z,23.00
2023-05-15T14:02:02.060Z,22.80
2023-05-15T14:04:29.762Z,22.80
2023-05-15T14:06:58.791Z,22.90
2023-05-15T14:09:26.488Z,22.90
2023-05-15T14:11:54.207Z,22.80
2023-05-15T14:14:22.052Z,22.70
2023-05-15T14:16:49.817Z,22.70
2023-05-15T14:19:17.574Z,22.80
2023-05-15T14:21:45.342Z,22.90
2023-05-15T14:24:14.340Z,22.60
2023-05-15T14:26:44.259Z,22.50
2023-05-15T14:29:12.352Z,22.40
2023-05-15T14:31:40.088Z,22.30
2023-05-15T14:34:07.766Z,21.60
2023-05-15T14:36:35.602Z,20.80
2023-05-15T14:39:04.185Z,20.30
2023-05-15T14:41:33.308Z,20.20
2023-05-15T14:44:01.175Z,20.40
2023-05-15T14:46:29.108Z,20.50
2023-05-15T14:48:56.882Z,20.70
2023-05-15T14:51:24.546Z,20.60
2023-05-15T14:53:52.251Z,20.20
2023-05-15T14:56:19.943Z,19.90
2023-05-15T14:58:49.086Z,19.60
2023-05-15T15:01:17.075Z,19.40
2023-05-15T15:03:44.899Z,19.10
2023-05-15T15:06:13.027Z,18.70
2023-05-15T15:08:40.778Z,18.40
2023-05-15T15:11:08.816Z,18.20
2023-05-15T15:13:36.488Z,18.00
2023-05-15T15:16:08.327Z,17.80
2023-05-15T15:18:36.158Z,17.60
2023-05-15T15:21:04.701Z,17.60
2023-05-15T15:23:32.453Z,17.70
2023-05-15T15:26:00.338Z,17.90
2023-05-15T15:28:29.206Z,18.00
2023-05-15T15:30:56.941Z,18.30
2023-05-15T15:33:26.013Z,18.60
2023-05-15T15:35:53.792Z,18.70
2023-05-15T15:38:21.623Z,18.80
2023-05-15T15:40:49.427Z,19.10
2023-05-15T15:43:17.394Z,19.30
2023-05-15T15:45:45.140Z,19.10
2023-05-15T15:48:12.928Z,18.90
2023-05-15T15:50:41.948Z,18.60
2023-05-15T15:53:09.736Z,18.50
2023-05-15T15:55:37.705Z,18.30
2023-05-15T15:58:05.428Z,18.20
2023-05-15T16:00:33.230Z,18.10
2023-05-15T16:03:01.068Z,18.10
2023-05-15T16:05:28.943Z,18.20
2023-05-15T16:07:58.152Z,18.20
2023-05-15T16:10:26.074Z,18.30
2023-05-15T16:12:53.826Z,18.30
2023-05-15T16:15:23.818Z,18.30
2023-05-15T16:17:54.127Z,18.30
2023-05-15T16:20:22.709Z,18.30
2023-05-15T16:22:50.726Z,18.20
2023-05-15T16:25:19.922Z,18.20
2023-05-15T16:27:47.673Z,18.20
2023-05-15T16:30:15.655Z,18.10
2023-05-15T16:32:43.421Z,18.20
2023-05-15T16:35:11.227Z,18.10
2023-05-15T16:46:36.070Z,18.00
2023-05-15T16:49:03.901Z,18.00
2023-05-15T16:51:32.056Z,18.00
2023-05-15T16:54:00.201Z,18.00
2023-05-15T16:56:28.096Z,18.00
2023-05-15T16:58:56.257Z,17.90
2023-05-15T17:01:24.333Z,17.90
2023-05-15T17:03:53.669Z,17.90
2023-05-15T17:06:21.514Z,17.80
2023-05-15T17:08:49.343Z,17.70
2023-05-15T17:11:17.213Z,17.70
2023-05-15T17:13:44.966Z,17.60
2023-05-15T17:16:12.944Z,17.50
2023-05-15T17:18:40.749Z,17.60
2023-05-15T17:21:09.837Z,17.40
2023-05-15T17:23:37.640Z,17.30
2023-05-15T17:26:05.422Z,17.30
2023-05-15T17:28:33.302Z,17.20
2023-05-15T17:31:02.021Z,17.10
2023-05-15T17:33:29.763Z,16.90
2023-05-15T17:35:57.677Z,16.70
2023-05-15T17:38:26.786Z,16.50
2023-05-15T17:40:54.553Z,16.30
2023-05-15T17:43:22.292Z,16.00
2023-05-15T17:45:50.092Z,15.80
2023-05-15T17:48:17.924Z,15.70
2023-05-15T17:50:45.668Z,15.70
2023-05-15T17:53:13.554Z,15.70
2023-05-15T17:55:42.636Z,15.50
2023-05-15T17:58:10.416Z,15.30
2023-05-15T18:00:38.146Z,15.00
2023-05-15T18:03:06.199Z,14.90
2023-05-15T18:05:34.025Z,14.80
2023-05-15T18:08:03.759Z,14.80
2023-05-15T18:10:31.586Z,14.60
2023-05-15T18:13:02.520Z,14.50
2023-05-15T18:15:31.858Z,14.50
2023-05-15T18:18:00.228Z,14.40
2023-05-15T18:20:28.025Z,14.30
2023-05-15T18:22:55.862Z,14.40
2023-05-15T18:25:23.804Z,14.40
2023-05-15T18:27:51.842Z,14.40
2023-05-15T18:30:21.128Z,14.20
2023-05-15T18:32:48.949Z,14.20
2023-05-15T18:35:17.171Z,14.20
2023-05-15T18:37:44.911Z,14.20
2023-05-15T18:40:13.319Z,14.10
2023-05-15T18:42:43.528Z,14.10
2023-05-15T18:45:13.817Z,14.10
2023-05-15T18:47:43.225Z,14.00
2023-05-15T18:50:11.620Z,14.00
2023-05-15T18:52:39.313Z,14.00
2023-05-15T18:55:09.657Z,13.90
2023-05-15T18:57:37.511Z,13.90
2023-05-15T19:00:06.981Z,13.90
2023-05-15T19:02:34.768Z,13.80
2023-05-15T19:05:04.026Z,13.80
2023-05-15T19:07:31.855Z,13.70
2023-05-15T19:10:00.077Z,13.70
2023-05-15T19:12:28.711Z,13.70
2023-05-15T19:14:56.637Z,13.60
2023-05-15T19:17:24.429Z,13.60
2023-05-15T19:19:52.796Z,13.60
2023-05-15T19:22:22.541Z,13.50
2023-05-15T19:24:50.714Z,13.60
2023-05-15T19:27:18.538Z,13.50
2023-05-15T19:29:46.423Z,13.50
2023-05-15T19:32:14.274Z,13.60
2023-05-15T19:34:43.133Z,13.60
2023-05-15T19:37:12.115Z,13.50
2023-05-15T19:39:41.734Z,13.50
2023-05-15T19:42:10.402Z,13.50
2023-05-15T19:44:41.599Z,13.40
2023-05-15T19:47:09.768Z,13.50
2023-05-15T19:49:37.563Z,13.60
2023-05-15T19:52:05.845Z,13.60
2023-05-15T19:54:34.604Z,13.60
2023-05-15T19:57:04.150Z,13.70
2023-05-15T19:59:32.609Z,13.70
2023-05-15T20:02:01.637Z,13.70
2023-05-15T20:04:29.773Z,13.80
2023-05-15T20:06:57.675Z,13.80
2023-05-15T20:09:25.545Z,13.80
2023-05-15T20:11:53.368Z,13.80
2023-05-15T20:14:22.700Z,13.90
2023-05-15T20:16:50.569Z,13.90
2023-05-15T20:19:21.488Z,13.90
2023-05-15T20:21:49.847Z,14.00
2023-05-15T20:24:18.181Z,13.90
2023-05-15T20:26:46.543Z,14.00
2023-05-15T20:29:14.271Z,14.00
2023-05-15T20:31:43.286Z,13.90
2023-05-15T20:34:14.892Z,13.90
2023-05-15T20:36:42.635Z,13.80
2023-05-15T20:39:10.536Z,13.70
2023-05-15T20:41:38.234Z,13.60
2023-05-15T20:44:06.080Z,13.60
2023-05-15T20:46:33.862Z,13.50
2023-05-15T20:49:02.884Z,13.40
2023-05-15T20:51:30.991Z,13.20
2023-05-15T20:53:58.691Z,13.20
2023-05-15T20:56:26.644Z,13.20
2023-05-15T20:58:54.443Z,13.00
2023-05-15T21:01:22.278Z,13.00
2023-05-15T21:03:50.155Z,12.90
2023-05-15T21:06:19.245Z,12.80
2023-05-15T21:08:47.304Z,12.80
2023-05-15T21:11:15.040Z,12.70
2023-05-15T21:13:42.764Z,12.70
2023-05-15T21:16:10.500Z,12.70
2023-05-15T21:18:38.944Z,12.70
2023-05-15T21:21:07.488Z,12.60
2023-05-15T21:23:36.766Z,12.70
2023-05-15T21:26:04.897Z,12.70
2023-05-15T21:28:32.967Z,12.70
2023-05-15T21:31:07.480Z,12.60
2023-05-15T21:33:35.650Z,12.60
2023-05-15T21:36:03.506Z,12.50
2023-05-15T21:38:31.651Z,12.50
2023-05-15T21:41:00.962Z,12.50
2023-05-15T21:43:28.672Z,12.50
2023-05-15T21:45:56.550Z,12.40
2023-05-15T21:48:24.356Z,12.40
2023-05-15T21:50:52.625Z,12.40
2023-05-15T21:53:20.351Z,12.40
2023-05-15T21:55:51.879Z,12.40
2023-05-15T21:58:20.945Z,12.40
2023-05-15T22:00:48.682Z,12.30
2023-05-15T22:03:16.446Z,12.30
2023-05-15T22:05:44.277Z,12.20
2023-05-15T22:08:12.035Z,12.20
2023-05-15T22:10:39.779Z,12.20
2023-05-15T22:13:08.986Z,12.20
2023-05-15T22:15:38.179Z,12.20
2023-05-15T22:18:06.496Z,12.30
2023-05-15T22:20:34.569Z,12.40
2023-05-15T22:23:02.264Z,12.40
2023-05-15T22:25:30.040Z,12.50
2023-05-15T22:27:57.766Z,12.60
2023-05-15T22:30:25.781Z,12.60
2023-05-15T22:32:55.077Z,12.60
2023-05-15T22:35:23.378Z,12.60
2023-05-15T22:37:51.123Z,12.60
2023-05-15T22:40:18.950Z,12.70
2023-05-15T22:42:50.045Z,12.60
2023-05-15T22:45:18.666Z,12.50
2023-05-15T22:47:46.837Z,12.50
2023-05-15T22:50:16.173Z,12.40
2023-05-15T22:52:43.925Z,12.50
2023-05-15T22:55:12.889Z,12.50
2023-05-15T22:57:40.830Z,12.60
2023-05-15T23:00:09.869Z,12.70
2023-05-15T23:02:38.527Z,12.70
2023-05-15T23:05:06.753Z,12.70
2023-05-15T23:07:35.830Z,12.80
2023-05-15T23:10:04.183Z,12.90
2023-05-15T23:12:31.906Z,12.90
2023-05-15T23:14:59.602Z,12.90
2023-05-15T23:17:27.341Z,13.00
2023-05-15T23:19:55.088Z,13.10
2023-05-15T23:22:22.855Z,13.10
2023-05-15T23:24:51.931Z,13.10
2023-05-15T23:27:19.663Z,13.00
2023-05-15T23:29:47.534Z,12.90
2023-05-15T23:32:15.349Z,13.00
2023-05-15T23:34:43.056Z,13.00
2023-05-15T23:37:10.778Z,13.00
2023-05-15T23:39:38.492Z,12.90
2023-05-15T23:42:09.920Z,13.00
2023-05-15T23:44:37.643Z,12.90
2023-05-15T23:47:06.600Z,12.90
2023-05-15T23:49:35.295Z,12.80
2023-05-15T23:52:02.978Z,12.80
2023-05-15T23:54:30.983Z,12.70
2023-05-15T23:56:58.668Z,12.60
2023-05-15T23:59:27.679Z,12.50
